Time;durP1;ratioP1;P1;durP2;ratioP2;P2;SDS_P1;SDS_P2;PMS_P1;PMS_P2;Temp;Humidity;BMP_temperature;BMP_pressure;BME280_temperature;BME280_humidity;BME280_pressure;Samples;Min_cycle;Max_cycle;Signal;HPM_P1;HPM_P2
2022/07/31 00:02:01;;;;;;;4.20;1.83;;;;;;;;;;5121938;28;20323;-71
2022/07/31 00:04:27;;;;;;;2.75;1.70;;;;;;;;;;5121791;28;20031;-71
2022/07/31 00:06:55;;;;;;;3.15;1.80;;;;;;;;;;5115140;28;20259;-71
2022/07/31 00:09:20;;;;;;;7.40;2.10;;;;;;;;;;5121401;28;20020;-71
2022/07/31 00:11:46;;;;;;;3.83;1.80;;;;;;;;;;5122026;28;20046;-71
2022/07/31 00:14:11;;;;;;;4.43;1.60;;;;;;;;;;5121684;28;20360;-71
2022/07/31 00:16:36;;;;;;;3.70;1.73;;;;;;;;;;5121696;28;20371;-71
2022/07/31 00:19:02;;;;;;;3.38;1.75;;;;;;;;;;5115219;28;20027;-71
2022/07/31 00:21:27;;;;;;;3.88;1.65;;;;;;;;;;5121254;28;20023;-71
2022/07/31 00:23:53;;;;;;;3.58;1.80;;;;;;;;;;5121533;28;20057;-71
2022/07/31 00:26:18;;;;;;;3.22;1.80;;;;;;;;;;5121561;28;20063;-71
2022/07/31 00:28:44;;;;;;;3.33;1.70;;;;;;;;;;5121337;28;20049;-71
2022/07/31 00:31:09;;;;;;;2.85;1.60;;;;;;;;;;5121372;28;20019;-71
2022/07/31 00:33:35;;;;;;;7.07;1.80;;;;;;;;;;5121611;28;20043;-71
2022/07/31 00:36:03;;;;;;;3.67;1.73;;;;;;;;;;5121265;28;20039;-71
2022/07/31 00:38:29;;;;;;;3.05;1.65;;;;;;;;;;5121338;28;20023;-71
2022/07/31 00:40:54;;;;;;;7.03;1.90;;;;;;;;;;5121298;28;20030;-71
2022/07/31 00:43:20;;;;;;;2.83;1.80;;;;;;;;;;5114199;28;20027;-71
2022/07/31 00:45:46;;;;;;;8.15;2.00;;;;;;;;;;5121378;28;20215;-70
2022/07/31 00:48:11;;;;;;;3.75;1.70;;;;;;;;;;5121333;28;20023;-71
2022/07/31 00:50:37;;;;;;;3.53;1.90;;;;;;;;;;5120821;28;20019;-71
2022/07/31 00:53:03;;;;;;;3.45;1.70;;;;;;;;;;5121426;28;20048;-71
2022/07/31 00:55:28;;;;;;;4.88;1.88;;;;;;;;;;5120941;28;20054;-71
2022/07/31 00:57:54;;;;;;;3.63;1.80;;;;;;;;;;5120906;28;20035;-71
2022/07/31 01:00:19;;;;;;;4.25;1.85;;;;;;;;;;5121484;28;20033;-71
2022/07/31 01:02:44;;;;;;;4.78;1.70;;;;;;;;;;5121367;28;20031;-71
2022/07/31 01:05:10;;;;;;;4.15;1.95;;;;;;;;;;5116532;28;20185;-71
2022/07/31 01:07:35;;;;;;;4.15;1.90;;;;;;;;;;5118773;28;20243;-71
2022/07/31 01:10:06;;;;;;;2.78;1.70;;;;;;;;;;5120942;28;20020;-71
2022/07/31 01:12:38;;;;;;;3.35;1.77;;;;;;;;;;5120842;28;20177;-71
2022/07/31 01:15:07;;;;;;;3.38;1.90;;;;;;;;;;5120915;28;20068;-71
2022/07/31 01:17:35;;;;;;;3.38;1.80;;;;;;;;;;5121401;28;20332;-71
2022/07/31 01:20:01;;;;;;;2.70;1.60;;;;;;;;;;5120586;28;20094;-71
2022/07/31 01:23:10;;;;;;;4.22;1.70;;;;;;;;;;5092742;28;20023;-70
2022/07/31 01:25:56;;;;;;;8.20;1.80;;;;;;;;;;5035118;28;20040;-71
2022/07/31 01:28:36;;;;;;;4.30;1.58;;;;;;;;;;5037872;28;20053;-71
2022/07/31 01:31:12;;;;;;;4.60;1.70;;;;;;;;;;5090638;28;20031;-71
2022/07/31 01:33:56;;;;;;;5.60;1.70;;;;;;;;;;5120625;28;20039;-71
2022/07/31 01:36:24;;;;;;;4.18;1.60;;;;;;;;;;5120392;28;20033;-71
2022/07/31 01:38:53;;;;;;;2.88;1.50;;;;;;;;;;5120955;28;20065;-71
2022/07/31 01:41:25;;;;;;;3.00;1.40;;;;;;;;;;5120943;28;20064;-71
2022/07/31 01:43:53;;;;;;;3.70;1.33;;;;;;;;;;5120588;28;20015;-71
2022/07/31 01:46:19;;;;;;;5.10;1.48;;;;;;;;;;5120752;28;20035;-71
2022/07/31 01:48:46;;;;;;;3.65;1.35;;;;;;;;;;5120486;28;20028;-71
2022/07/31 01:51:12;;;;;;;3.40;1.30;;;;;;;;;;5120512;28;20019;-72
2022/07/31 01:53:39;;;;;;;2.67;1.20;;;;;;;;;;5120530;28;20063;-71
2022/07/31 01:56:06;;;;;;;2.45;1.20;;;;;;;;;;5124059;28;20022;-71
2022/07/31 01:58:35;;;;;;;2.53;1.20;;;;;;;;;;5124517;28;20205;-71
2022/07/31 02:01:02;;;;;;;2.60;1.40;;;;;;;;;;5124523;28;20015;-71
2022/07/31 02:03:29;;;;;;;2.67;1.40;;;;;;;;;;5124462;28;20368;-71
2022/07/31 02:05:56;;;;;;;3.92;1.58;;;;;;;;;;5117070;28;20080;-71
2022/07/31 02:08:22;;;;;;;3.75;1.30;;;;;;;;;;5124103;28;20027;-71
2022/07/31 02:10:47;;;;;;;2.83;1.40;;;;;;;;;;5124311;28;20110;-71
2022/07/31 02:13:14;;;;;;;2.67;1.20;;;;;;;;;;5123946;28;20031;-71
2022/07/31 02:15:43;;;;;;;2.13;1.27;;;;;;;;;;5124177;28;20028;-71
2022/07/31 02:18:10;;;;;;;3.22;1.50;;;;;;;;;;5124053;28;20027;-71
2022/07/31 02:20:38;;;;;;;2.35;1.23;;;;;;;;;;5123726;28;20320;-71
2022/07/31 02:23:04;;;;;;;3.17;1.40;;;;;;;;;;5123731;28;20140;-71
2022/07/31 02:25:30;;;;;;;2.38;1.23;;;;;;;;;;5123813;28;20027;-72
2022/07/31 02:27:59;;;;;;;2.65;1.30;;;;;;;;;;5123679;28;20029;-71
2022/07/31 02:30:27;;;;;;;2.55;1.30;;;;;;;;;;5124065;28;20024;-71
2022/07/31 02:32:55;;;;;;;1.90;1.10;;;;;;;;;;5123946;28;20027;-73
2022/07/31 02:35:21;;;;;;;2.50;1.30;;;;;;;;;;5123350;28;20061;-73
2022/07/31 02:37:50;;;;;;;3.45;1.30;;;;;;;;;;5123592;28;20024;-73
2022/07/31 02:40:16;;;;;;;2.63;1.30;;;;;;;;;;5123199;28;20020;-73
2022/07/31 02:42:42;;;;;;;2.55;1.27;;;;;;;;;;5123296;28;20029;-73
2022/07/31 02:45:09;;;;;;;3.35;1.42;;;;;;;;;;5123466;28;20023;-73
2022/07/31 02:47:36;;;;;;;2.58;1.17;;;;;;;;;;5123787;28;20023;-73
2022/07/31 02:50:03;;;;;;;2.97;1.35;;;;;;;;;;5122999;28;20019;-73
2022/07/31 02:52:29;;;;;;;2.40;1.20;;;;;;;;;;5118473;28;20038;-73
2022/07/31 02:54:56;;;;;;;4.00;1.42;;;;;;;;;;5122902;28;20082;-73
2022/07/31 02:57:22;;;;;;;3.20;1.20;;;;;;;;;;5123050;28;20052;-73
2022/07/31 02:59:47;;;;;;;1.67;1.17;;;;;;;;;;5123210;28;20039;-73
2022/07/31 03:02:12;;;;;;;2.30;1.30;;;;;;;;;;5123324;28;20027;-73
2022/07/31 03:04:38;;;;;;;3.40;1.40;;;;;;;;;;5123022;28;20054;-73
2022/07/31 03:07:03;;;;;;;2.42;1.20;;;;;;;;;;5116507;28;20100;-73
2022/07/31 03:09:29;;;;;;;2.67;1.40;;;;;;;;;;5122828;28;20023;-73
2022/07/31 03:11:58;;;;;;;3.42;1.40;;;;;;;;;;5123079;28;20024;-73
2022/07/31 03:14:25;;;;;;;2.80;1.40;;;;;;;;;;5122956;28;20019;-73
2022/07/31 03:16:52;;;;;;;1.92;1.27;;;;;;;;;;5122907;28;20024;-73
2022/07/31 03:19:20;;;;;;;2.50;1.13;;;;;;;;;;5122509;28;20027;-73
2022/07/31 03:21:46;;;;;;;2.70;1.27;;;;;;;;;;5122841;28;20023;-73
2022/07/31 03:24:12;;;;;;;2.08;1.30;;;;;;;;;;5122746;28;20023;-73
2022/07/31 03:26:38;;;;;;;2.95;1.40;;;;;;;;;;5122277;28;20232;-73
2022/07/31 03:29:03;;;;;;;3.25;1.30;;;;;;;;;;5122828;28;20246;-73
2022/07/31 03:31:29;;;;;;;3.90;1.30;;;;;;;;;;5122625;28;20065;-73
2022/07/31 03:33:55;;;;;;;2.60;1.38;;;;;;;;;;5122213;28;20091;-73
2022/07/31 03:36:20;;;;;;;2.28;1.48;;;;;;;;;;5122383;28;20043;-72
2022/07/31 03:38:46;;;;;;;2.30;1.27;;;;;;;;;;5122231;28;20019;-73
2022/07/31 03:41:11;;;;;;;4.38;1.40;;;;;;;;;;5122545;28;20031;-73
2022/07/31 03:43:37;;;;;;;2.78;1.40;;;;;;;;;;5120006;28;20036;-74
2022/07/31 03:46:04;;;;;;;3.47;1.40;;;;;;;;;;5118266;28;20064;-73
2022/07/31 03:48:30;;;;;;;1.92;1.35;;;;;;;;;;5122386;28;20068;-73
2022/07/31 03:50:56;;;;;;;2.60;1.33;;;;;;;;;;5122157;28;20045;-73
2022/07/31 03:53:23;;;;;;;2.30;1.30;;;;;;;;;;5121744;28;20035;-73
2022/07/31 03:55:50;;;;;;;2.22;1.33;;;;;;;;;;5121679;28;20046;-72
2022/07/31 03:58:17;;;;;;;2.85;1.30;;;;;;;;;;5122260;28;20034;-72
2022/07/31 04:00:43;;;;;;;2.42;1.50;;;;;;;;;;5121921;28;20030;-72
2022/07/31 04:03:11;;;;;;;3.17;1.40;;;;;;;;;;5121732;28;20208;-72
2022/07/31 04:05:38;;;;;;;2.90;1.52;;;;;;;;;;5115292;28;20028;-72
2022/07/31 04:08:05;;;;;;;5.13;1.70;;;;;;;;;;5121481;28;20056;-72
2022/07/31 04:10:30;;;;;;;5.00;1.70;;;;;;;;;;5121753;28;20367;-72
2022/07/31 04:12:56;;;;;;;3.58;1.75;;;;;;;;;;5121700;28;20150;-72
2022/07/31 04:15:21;;;;;;;3.42;1.80;;;;;;;;;;5121959;28;20016;-73
2022/07/31 04:17:46;;;;;;;3.38;2.13;;;;;;;;;;5120811;28;20019;-72
2022/07/31 04:20:12;;;;;;;3.58;2.28;;;;;;;;;;5115515;28;20020;-73
2022/07/31 04:22:37;;;;;;;7.95;2.47;;;;;;;;;;5121179;28;20023;-72
2022/07/31 04:25:04;;;;;;;3.70;2.30;;;;;;;;;;5120830;28;20056;-73
2022/07/31 04:27:29;;;;;;;4.22;2.33;;;;;;;;;;5121541;28;20249;-72
2022/07/31 04:29:55;;;;;;;4.55;2.40;;;;;;;;;;5121622;28;20454;-73
2022/07/31 04:32:21;;;;;;;4.75;2.33;;;;;;;;;;5121088;28;20031;-72
2022/07/31 04:34:46;;;;;;;3.10;2.10;;;;;;;;;;5121505;28;20065;-72
2022/07/31 04:37:11;;;;;;;5.40;2.20;;;;;;;;;;5121635;28;20036;-72
2022/07/31 04:39:37;;;;;;;4.28;1.92;;;;;;;;;;5120902;28;20035;-73
2022/07/31 04:42:03;;;;;;;3.28;1.90;;;;;;;;;;5121123;28;20193;-72
2022/07/31 04:44:28;;;;;;;3.50;1.92;;;;;;;;;;5114687;28;20041;-72
2022/07/31 04:47:00;;;;;;;4.05;2.22;;;;;;;;;;5121701;28;20341;-72
2022/07/31 04:49:26;;;;;;;3.40;1.95;;;;;;;;;;5121216;28;20034;-72
2022/07/31 04:51:52;;;;;;;2.70;1.70;;;;;;;;;;5120825;28;20043;-72
2022/07/31 04:54:17;;;;;;;3.03;1.70;;;;;;;;;;5121205;28;20204;-72
2022/07/31 04:56:43;;;;;;;4.63;1.70;;;;;;;;;;5121090;28;20035;-72
2022/07/31 04:59:14;;;;;;;5.32;1.90;;;;;;;;;;5120759;28;20027;-72
2022/07/31 05:01:40;;;;;;;5.93;2.10;;;;;;;;;;5121050;28;20024;-72
2022/07/31 05:04:07;;;;;;;3.33;2.25;;;;;;;;;;5102230;28;20223;-73
2022/07/31 05:06:46;;;;;;;3.38;2.13;;;;;;;;;;5114762;28;20027;-72
2022/07/31 05:09:15;;;;;;;5.40;3.03;;;;;;;;;;5120818;28;20026;-72
2022/07/31 05:11:42;;;;;;;4.05;3.10;;;;;;;;;;5120811;28;20022;-72
2022/07/31 05:14:10;;;;;;;4.95;3.30;;;;;;;;;;5120900;28;20024;-72
2022/07/31 05:16:36;;;;;;;7.47;3.60;;;;;;;;;;5120846;28;20103;-72
2022/07/31 05:19:02;;;;;;;5.15;3.40;;;;;;;;;;5120699;28;20092;-72
2022/07/31 05:21:31;;;;;;;5.43;3.70;;;;;;;;;;5114342;28;20333;-72
2022/07/31 05:23:57;;;;;;;5.15;3.50;;;;;;;;;;5120705;28;20047;-72
2022/07/31 05:26:23;;;;;;;4.85;3.13;;;;;;;;;;5120750;28;20051;-72
2022/07/31 05:28:50;;;;;;;3.80;3.17;;;;;;;;;;5122089;28;20144;-72
2022/07/31 05:31:16;;;;;;;4.75;3.35;;;;;;;;;;5125001;28;20313;-72
2022/07/31 05:33:42;;;;;;;5.32;3.30;;;;;;;;;;5124409;28;20389;-71
2022/07/31 05:36:08;;;;;;;4.00;3.25;;;;;;;;;;5125046;28;20342;-73
2022/07/31 05:38:34;;;;;;;5.72;3.30;;;;;;;;;;5106339;28;20020;-72
2022/07/31 05:40:59;;;;;;;5.20;3.00;;;;;;;;;;5124690;28;20037;-72
2022/07/31 05:43:24;;;;;;;4.95;2.90;;;;;;;;;;5124813;28;20235;-73
2022/07/31 05:45:50;;;;;;;4.88;2.85;;;;;;;;;;5124827;28;20031;-72
2022/07/31 05:48:16;;;;;;;4.35;2.72;;;;;;;;;;5124911;28;20107;-72
2022/07/31 05:50:42;;;;;;;4.50;2.90;;;;;;;;;;5123479;28;20072;-72
2022/07/31 05:53:11;;;;;;;5.97;2.65;;;;;;;;;;5124099;28;20043;-72
2022/07/31 05:55:37;;;;;;;4.32;2.55;;;;;;;;;;5121999;28;20025;-72
2022/07/31 05:58:03;;;;;;;3.50;2.58;;;;;;;;;;5124464;28;20028;-72
2022/07/31 06:00:29;;;;;;;6.05;2.85;;;;;;;;;;5124702;28;20027;-73
2022/07/31 06:02:55;;;;;;;3.75;2.40;;;;;;;;;;5124434;28;20039;-72
2022/07/31 06:05:21;;;;;;;3.67;2.50;;;;;;;;;;5119463;28;20042;-72
2022/07/31 06:07:46;;;;;;;4.15;2.50;;;;;;;;;;5122506;28;20316;-72
2022/07/31 06:10:11;;;;;;;3.92;2.40;;;;;;;;;;5123670;28;20022;-72
2022/07/31 06:12:37;;;;;;;4.07;2.40;;;;;;;;;;5124287;28;20339;-72
2022/07/31 06:15:02;;;;;;;4.93;2.40;;;;;;;;;;5092298;28;20193;-72
2022/07/31 06:17:27;;;;;;;4.60;2.50;;;;;;;;;;5120939;28;20027;-72
2022/07/31 06:19:53;;;;;;;3.92;2.38;;;;;;;;;;5120971;28;20024;-72
2022/07/31 06:22:18;;;;;;;5.32;2.63;;;;;;;;;;5120753;28;20090;-73
2022/07/31 06:24:43;;;;;;;5.82;2.42;;;;;;;;;;5123172;28;20020;-72
2022/07/31 06:27:09;;;;;;;3.60;2.28;;;;;;;;;;5123626;28;20026;-72
2022/07/31 06:29:34;;;;;;;3.25;2.20;;;;;;;;;;5124045;28;20030;-72
2022/07/31 06:32:00;;;;;;;3.30;2.30;;;;;;;;;;5123570;28;20011;-72
2022/07/31 06:34:25;;;;;;;3.85;2.03;;;;;;;;;;5123710;28;20030;-72
2022/07/31 06:36:50;;;;;;;3.35;2.35;;;;;;;;;;5123755;28;20430;-72
2022/07/31 06:39:16;;;;;;;3.38;2.30;;;;;;;;;;5122849;28;20038;-72
2022/07/31 06:41:48;;;;;;;4.05;2.20;;;;;;;;;;5117860;28;20058;-72
2022/07/31 06:44:20;;;;;;;4.00;2.38;;;;;;;;;;5111084;28;20030;-72
2022/07/31 06:46:47;;;;;;;4.88;2.30;;;;;;;;;;5116460;28;20023;-73
2022/07/31 06:49:12;;;;;;;3.35;2.50;;;;;;;;;;5123677;28;20028;-72
2022/07/31 06:51:38;;;;;;;3.55;2.50;;;;;;;;;;5123358;28;20095;-72
2022/07/31 06:54:06;;;;;;;3.92;2.33;;;;;;;;;;5122783;28;20016;-72
2022/07/31 06:56:32;;;;;;;3.50;2.50;;;;;;;;;;5114523;28;20019;-72
2022/07/31 06:58:57;;;;;;;4.38;2.60;;;;;;;;;;5120263;28;20024;-72
2022/07/31 07:01:23;;;;;;;3.22;2.28;;;;;;;;;;5123138;28;20315;-72
2022/07/31 07:03:48;;;;;;;4.22;2.50;;;;;;;;;;5123014;28;20024;-71
2022/07/31 07:06:14;;;;;;;4.07;2.40;;;;;;;;;;5116371;28;20027;-71
2022/07/31 07:08:39;;;;;;;3.40;2.40;;;;;;;;;;5122612;28;20310;-71
2022/07/31 07:11:05;;;;;;;6.03;2.80;;;;;;;;;;5123216;28;20038;-73
2022/07/31 07:13:30;;;;;;;3.78;2.50;;;;;;;;;;5123209;28;20103;-73
2022/07/31 07:15:56;;;;;;;4.60;2.65;;;;;;;;;;5122761;28;20034;-73
2022/07/31 07:18:22;;;;;;;5.75;2.60;;;;;;;;;;5122754;28;20371;-73
2022/07/31 07:20:48;;;;;;;3.38;2.58;;;;;;;;;;5098233;28;20019;-73
2022/07/31 07:23:13;;;;;;;6.00;2.58;;;;;;;;;;5122272;28;20051;-73
2022/07/31 07:25:39;;;;;;;4.38;2.30;;;;;;;;;;5122708;28;20042;-73
2022/07/31 07:28:05;;;;;;;3.63;2.50;;;;;;;;;;5122747;28;20034;-73
2022/07/31 07:30:31;;;;;;;3.50;2.50;;;;;;;;;;5122530;28;20375;-73
2022/07/31 07:32:56;;;;;;;4.60;2.60;;;;;;;;;;5122623;28;20016;-74
2022/07/31 07:35:21;;;;;;;4.60;2.50;;;;;;;;;;5119017;28;20236;-73
2022/07/31 07:37:47;;;;;;;3.92;2.30;;;;;;;;;;5122080;28;20257;-73
2022/07/31 07:40:13;;;;;;;2.90;2.20;;;;;;;;;;5122408;28;20015;-74
2022/07/31 07:42:39;;;;;;;6.40;2.90;;;;;;;;;;5122456;28;20423;-73
2022/07/31 07:45:05;;;;;;;3.92;2.45;;;;;;;;;;5121879;28;20024;-73
2022/07/31 07:47:30;;;;;;;4.55;2.80;;;;;;;;;;5116766;28;20028;-73
2022/07/31 07:49:56;;;;;;;5.15;2.47;;;;;;;;;;5091642;28;20023;-73
2022/07/31 07:52:21;;;;;;;3.13;2.42;;;;;;;;;;5120693;28;20028;-73
2022/07/31 07:54:47;;;;;;;5.28;2.67;;;;;;;;;;5122069;28;20087;-73
2022/07/31 07:57:16;;;;;;;7.68;2.70;;;;;;;;;;5122173;28;20298;-74
2022/07/31 07:59:42;;;;;;;4.65;2.60;;;;;;;;;;5121513;28;20073;-73
2022/07/31 08:02:07;;;;;;;4.65;2.70;;;;;;;;;;5122168;28;20023;-73
2022/07/31 08:04:33;;;;;;;4.38;2.83;;;;;;;;;;5121978;28;20079;-73
2022/07/31 08:06:58;;;;;;;4.25;2.42;;;;;;;;;;5114978;28;20038;-73
2022/07/31 08:09:24;;;;;;;6.22;3.00;;;;;;;;;;5121677;28;20084;-72
2022/07/31 08:11:50;;;;;;;3.53;2.67;;;;;;;;;;5121811;28;20030;-71
2022/07/31 08:14:15;;;;;;;3.80;2.72;;;;;;;;;;5121558;28;20023;-73
2022/07/31 08:16:41;;;;;;;4.53;2.63;;;;;;;;;;5103742;28;20042;-73
2022/07/31 08:19:06;;;;;;;3.13;2.55;;;;;;;;;;5121751;28;20034;-73
2022/07/31 08:21:33;;;;;;;4.22;2.90;;;;;;;;;;5119005;28;20112;-73
2022/07/31 08:23:59;;;;;;;4.40;2.90;;;;;;;;;;5097264;28;20027;-72
2022/07/31 08:26:24;;;;;;;4.38;2.90;;;;;;;;;;5117465;28;20029;-73
2022/07/31 08:28:50;;;;;;;5.47;3.05;;;;;;;;;;5121582;28;20050;-73
2022/07/31 08:31:15;;;;;;;4.22;2.90;;;;;;;;;;5121061;28;20024;-73
2022/07/31 08:33:40;;;;;;;5.65;3.00;;;;;;;;;;5121691;28;20031;-73
2022/07/31 08:36:07;;;;;;;4.47;2.95;;;;;;;;;;5121604;28;20031;-73
2022/07/31 08:38:37;;;;;;;4.38;3.03;;;;;;;;;;5120961;28;20043;-73
2022/07/31 08:41:02;;;;;;;6.07;3.22;;;;;;;;;;5121417;28;20286;-73
2022/07/31 08:43:29;;;;;;;5.85;3.25;;;;;;;;;;5121410;28;20161;-73
2022/07/31 08:45:56;;;;;;;3.88;2.88;;;;;;;;;;5121052;28;20024;-73
2022/07/31 08:48:23;;;;;;;5.38;2.90;;;;;;;;;;5121243;28;20109;-73
2022/07/31 08:50:50;;;;;;;4.70;3.10;;;;;;;;;;5121028;28;20019;-73
2022/07/31 08:53:17;;;;;;;4.93;3.17;;;;;;;;;;5121044;28;20354;-73
2022/07/31 08:55:43;;;;;;;5.70;3.00;;;;;;;;;;5119213;28;20312;-73
2022/07/31 08:58:08;;;;;;;4.97;3.20;;;;;;;;;;5121242;28;20362;-73
2022/07/31 09:00:34;;;;;;;3.92;3.00;;;;;;;;;;5120741;28;20044;-73
2022/07/31 09:02:59;;;;;;;4.95;3.20;;;;;;;;;;5121233;28;20046;-73
2022/07/31 09:05:25;;;;;;;6.07;3.05;;;;;;;;;;5122428;28;20023;-73
2022/07/31 09:07:51;;;;;;;4.63;3.03;;;;;;;;;;5126440;28;20033;-73
2022/07/31 09:10:25;;;;;;;4.05;2.97;;;;;;;;;;5127605;28;20027;-73
2022/07/31 09:12:51;;;;;;;5.63;3.20;;;;;;;;;;5100492;28;20213;-73
2022/07/31 09:15:28;;;;;;;4.65;3.00;;;;;;;;;;5127550;28;20016;-73
2022/07/31 09:17:54;;;;;;;4.07;2.80;;;;;;;;;;5122572;28;20047;-73
2022/07/31 09:20:22;;;;;;;4.53;2.92;;;;;;;;;;5127767;28;20011;-74
2022/07/31 09:23:02;;;;;;;5.32;3.00;;;;;;;;;;5114456;28;20334;-73
2022/07/31 09:25:27;;;;;;;4.35;3.20;;;;;;;;;;5115817;28;20353;-73
2022/07/31 09:28:01;;;;;;;4.68;3.03;;;;;;;;;;5128089;28;20019;-73
2022/07/31 09:30:26;;;;;;;4.10;3.20;;;;;;;;;;5116357;28;20230;-73
2022/07/31 09:32:52;;;;;;;4.35;2.90;;;;;;;;;;5127901;28;20327;-73
2022/07/31 09:35:18;;;;;;;6.32;3.67;;;;;;;;;;5127538;28;20015;-73
2022/07/31 09:37:46;;;;;;;5.05;3.30;;;;;;;;;;5127622;28;20207;-73
2022/07/31 09:40:12;;;;;;;5.35;3.22;;;;;;;;;;5127312;28;20016;-73
2022/07/31 09:42:43;;;;;;;5.88;3.08;;;;;;;;;;5109501;28;20022;-72
2022/07/31 09:45:19;;;;;;;5.10;3.20;;;;;;;;;;5127331;28;20367;-73
2022/07/31 09:47:45;;;;;;;4.85;3.08;;;;;;;;;;5127659;28;20095;-73
2022/07/31 09:50:11;;;;;;;4.50;3.20;;;;;;;;;;5127627;28;20020;-73
2022/07/31 09:52:37;;;;;;;4.20;2.90;;;;;;;;;;5127206;28;20039;-73
2022/07/31 09:55:12;;;;;;;4.22;3.17;;;;;;;;;;5126927;28;20415;-73
2022/07/31 09:57:38;;;;;;;4.13;3.08;;;;;;;;;;5127862;28;20023;-73
2022/07/31 10:00:08;;;;;;;4.50;3.03;;;;;;;;;;5127093;28;20030;-74
2022/07/31 10:02:36;;;;;;;5.30;3.20;;;;;;;;;;5127455;28;20050;-73
2022/07/31 10:05:02;;;;;;;4.75;3.30;;;;;;;;;;5125309;28;20077;-73
2022/07/31 10:07:34;;;;;;;4.90;3.20;;;;;;;;;;5122679;28;20031;-73
2022/07/31 10:10:00;;;;;;;4.32;3.10;;;;;;;;;;5127180;28;20302;-73
2022/07/31 10:12:28;;;;;;;5.10;3.40;;;;;;;;;;5127195;28;20027;-73
2022/07/31 10:14:55;;;;;;;5.50;3.20;;;;;;;;;;5125513;28;20231;-73
2022/07/31 10:17:26;;;;;;;4.95;3.50;;;;;;;;;;5123977;28;20218;-73
2022/07/31 10:19:56;;;;;;;10.70;3.65;;;;;;;;;;5123908;28;20083;-73
2022/07/31 10:22:25;;;;;;;4.47;3.40;;;;;;;;;;5117265;28;20026;-73
2022/07/31 10:24:51;;;;;;;4.32;3.20;;;;;;;;;;5123496;28;20369;-73
2022/07/31 10:27:18;;;;;;;4.55;3.20;;;;;;;;;;5123769;28;20254;-73
2022/07/31 10:29:43;;;;;;;4.80;3.55;;;;;;;;;;5105112;28;20066;-73
2022/07/31 10:32:09;;;;;;;4.20;3.50;;;;;;;;;;5123926;28;20217;-73
2022/07/31 10:34:35;;;;;;;5.15;3.17;;;;;;;;;;5123560;28;20098;-73
2022/07/31 10:37:13;;;;;;;7.00;3.40;;;;;;;;;;5123319;28;20027;-73
2022/07/31 10:39:57;;;;;;;5.82;3.50;;;;;;;;;;5123680;28;20032;-73
2022/07/31 10:42:46;;;;;;;4.47;3.45;;;;;;;;;;5115689;28;20307;-73
2022/07/31 10:45:13;;;;;;;5.35;3.33;;;;;;;;;;5118778;28;20282;-74
2022/07/31 10:47:38;;;;;;;5.13;3.50;;;;;;;;;;5098882;28;20028;-72
2022/07/31 10:50:05;;;;;;;5.45;3.30;;;;;;;;;;5123039;28;20062;-73
2022/07/31 10:52:31;;;;;;;7.00;3.65;;;;;;;;;;5123241;28;20039;-74
2022/07/31 10:55:00;;;;;;;4.70;3.35;;;;;;;;;;5123294;28;20043;-74
2022/07/31 10:57:30;;;;;;;4.78;3.10;;;;;;;;;;5122974;28;20180;-73
2022/07/31 11:00:07;;;;;;;4.20;3.30;;;;;;;;;;5123448;28;20073;-73
2022/07/31 11:02:34;;;;;;;4.85;3.35;;;;;;;;;;5123137;28;20339;-73
2022/07/31 11:05:26;;;;;;;5.70;3.20;;;;;;;;;;5121208;28;20079;-73
2022/07/31 11:08:06;;;;;;;7.75;3.22;;;;;;;;;;5121809;28;20046;-73
2022/07/31 11:10:35;;;;;;;4.72;3.30;;;;;;;;;;5113536;28;20081;-73
2022/07/31 11:13:06;;;;;;;4.45;3.17;;;;;;;;;;5119627;28;20023;-72
2022/07/31 11:15:32;;;;;;;5.20;3.38;;;;;;;;;;5112494;28;20037;-73
2022/07/31 11:17:58;;;;;;;3.95;2.80;;;;;;;;;;5123087;28;20023;-73
2022/07/31 11:20:29;;;;;;;4.50;3.30;;;;;;;;;;5122473;28;20378;-73
2022/07/31 11:22:57;;;;;;;4.72;3.15;;;;;;;;;;5116621;28;20045;-73
2022/07/31 11:25:23;;;;;;;4.20;3.15;;;;;;;;;;5122400;28;20027;-73
2022/07/31 11:27:48;;;;;;;4.88;3.20;;;;;;;;;;5122219;28;20024;-73
2022/07/31 11:30:14;;;;;;;6.45;3.30;;;;;;;;;;5122562;28;20015;-73
2022/07/31 11:32:45;;;;;;;5.00;3.17;;;;;;;;;;5122761;28;20056;-72
2022/07/31 11:35:11;;;;;;;7.00;3.80;;;;;;;;;;5119265;28;20084;-72
2022/07/31 11:37:36;;;;;;;6.35;3.08;;;;;;;;;;5122421;28;20301;-73
2022/07/31 11:40:04;;;;;;;4.53;3.28;;;;;;;;;;5122030;28;20027;-73
2022/07/31 11:42:30;;;;;;;7.45;3.60;;;;;;;;;;5122082;28;20027;-74
2022/07/31 11:45:03;;;;;;;5.32;2.92;;;;;;;;;;5122563;28;20049;-73
2022/07/31 11:47:44;;;;;;;5.35;3.20;;;;;;;;;;5109256;28;20035;-73
2022/07/31 11:50:09;;;;;;;6.85;3.15;;;;;;;;;;5116606;28;20035;-73
2022/07/31 11:52:35;;;;;;;3.55;2.75;;;;;;;;;;5122502;28;20047;-73
2022/07/31 11:55:07;;;;;;;4.78;2.83;;;;;;;;;;5122025;28;20111;-76
2022/07/31 11:57:33;;;;;;;3.85;2.58;;;;;;;;;;5121678;28;20028;-73
2022/07/31 12:00:14;;;;;;;3.78;2.80;;;;;;;;;;5122186;28;20026;-73
2022/07/31 12:02:44;;;;;;;3.72;2.80;;;;;;;;;;5122209;28;20331;-73
2022/07/31 12:05:12;;;;;;;6.45;3.60;;;;;;;;;;5119022;28;20355;-73
2022/07/31 12:07:42;;;;;;;3.85;2.85;;;;;;;;;;5118449;28;20109;-73
2022/07/31 12:10:11;;;;;;;4.10;3.00;;;;;;;;;;5121721;28;20083;-73
2022/07/31 12:12:38;;;;;;;7.80;3.40;;;;;;;;;;5121749;28;20086;-73
2022/07/31 12:15:18;;;;;;;5.25;3.17;;;;;;;;;;5121591;28;20023;-72
2022/07/31 12:17:45;;;;;;;4.88;3.00;;;;;;;;;;5121975;28;20025;-73
2022/07/31 12:20:11;;;;;;;4.45;3.00;;;;;;;;;;5121362;28;20016;-73
2022/07/31 12:22:37;;;;;;;3.88;2.97;;;;;;;;;;5121804;28;20046;-73
2022/07/31 12:25:02;;;;;;;4.85;2.92;;;;;;;;;;5114713;28;20019;-73
2022/07/31 12:27:28;;;;;;;6.88;3.00;;;;;;;;;;5121431;28;20023;-73
2022/07/31 12:29:53;;;;;;;5.38;3.00;;;;;;;;;;5121492;28;20294;-73
2022/07/31 12:32:26;;;;;;;4.55;2.58;;;;;;;;;;5121647;28;20015;-73
2022/07/31 12:35:02;;;;;;;4.78;2.78;;;;;;;;;;5120891;28;20038;-73
2022/07/31 12:37:28;;;;;;;5.05;2.80;;;;;;;;;;5121511;28;20020;-73
2022/07/31 12:39:54;;;;;;;5.68;2.85;;;;;;;;;;5120800;28;20212;-73
2022/07/31 12:42:25;;;;;;;4.47;2.80;;;;;;;;;;5112775;28;20028;-73
2022/07/31 12:44:54;;;;;;;4.18;2.80;;;;;;;;;;5121304;28;20030;-73
2022/07/31 12:47:23;;;;;;;4.28;2.50;;;;;;;;;;5121224;28;20020;-73
2022/07/31 12:49:49;;;;;;;3.22;2.50;;;;;;;;;;5114320;28;20031;-75
2022/07/31 12:52:15;;;;;;;3.75;2.47;;;;;;;;;;5121205;28;20042;-73
2022/07/31 12:54:40;;;;;;;4.05;2.70;;;;;;;;;;5120934;28;20027;-73
2022/07/31 12:57:05;;;;;;;3.97;2.58;;;;;;;;;;5121108;28;20323;-74
2022/07/31 12:59:31;;;;;;;4.20;2.40;;;;;;;;;;5121294;28;20027;-73
2022/07/31 13:01:56;;;;;;;3.03;2.38;;;;;;;;;;5121332;28;20026;-73
2022/07/31 13:04:21;;;;;;;4.00;2.47;;;;;;;;;;5120530;28;20074;-73
2022/07/31 13:06:49;;;;;;;5.10;2.60;;;;;;;;;;5114471;28;20089;-72
2022/07/31 13:09:15;;;;;;;5.13;2.45;;;;;;;;;;5120863;28;20035;-73
2022/07/31 13:11:40;;;;;;;3.20;2.30;;;;;;;;;;5121450;28;20031;-73
2022/07/31 13:14:06;;;;;;;3.05;2.00;;;;;;;;;;5120936;28;20231;-73
2022/07/31 13:16:31;;;;;;;3.13;2.20;;;;;;;;;;5121179;28;20032;-73
2022/07/31 13:18:57;;;;;;;4.72;2.30;;;;;;;;;;5120714;28;20031;-73
2022/07/31 13:21:22;;;;;;;3.35;2.22;;;;;;;;;;5121099;28;20304;-73
2022/07/31 13:23:48;;;;;;;4.00;2.30;;;;;;;;;;5114373;28;20016;-73
2022/07/31 13:26:13;;;;;;;4.43;2.42;;;;;;;;;;5120449;28;20106;-73
2022/07/31 13:28:39;;;;;;;4.78;2.30;;;;;;;;;;5120954;28;20023;-73
2022/07/31 13:31:04;;;;;;;3.55;2.13;;;;;;;;;;5121134;28;20335;-74
2022/07/31 13:33:29;;;;;;;4.18;2.65;;;;;;;;;;5120607;28;20216;-73
2022/07/31 13:35:55;;;;;;;7.38;2.33;;;;;;;;;;5120970;28;20212;-73
2022/07/31 13:38:20;;;;;;;4.60;2.30;;;;;;;;;;5120909;28;20023;-73
2022/07/31 13:43:29;;;;;;;3.17;2.17;;;;;;;;;;5116241;28;20038;-73
2022/07/31 13:45:54;;;;;;;2.60;1.95;;;;;;;;;;5120911;28;20308;-73
2022/07/31 13:48:20;;;;;;;2.75;1.95;;;;;;;;;;5120672;28;20258;-73
2022/07/31 13:50:45;;;;;;;3.53;1.90;;;;;;;;;;5114931;28;20154;-73
2022/07/31 13:53:10;;;;;;;3.17;2.03;;;;;;;;;;5124844;28;20032;-73
2022/07/31 13:55:36;;;;;;;2.55;1.80;;;;;;;;;;5123993;28;20960;-73
2022/07/31 13:58:02;;;;;;;3.42;1.90;;;;;;;;;;5124369;28;20031;-73
2022/07/31 14:00:28;;;;;;;3.28;2.00;;;;;;;;;;5124235;28;20030;-73
2022/07/31 14:02:54;;;;;;;2.72;2.10;;;;;;;;;;5124342;28;20073;-73
2022/07/31 14:05:19;;;;;;;3.25;2.00;;;;;;;;;;5120174;28;20020;-73
2022/07/31 14:07:45;;;;;;;3.17;1.90;;;;;;;;;;5121916;28;20027;-73
2022/07/31 14:10:10;;;;;;;7.28;2.35;;;;;;;;;;5123841;28;20016;-73
2022/07/31 14:12:35;;;;;;;3.80;2.17;;;;;;;;;;5124293;28;20034;-72
2022/07/31 14:15:03;;;;;;;3.63;2.20;;;;;;;;;;5123827;28;20090;-75
2022/07/31 14:17:28;;;;;;;4.13;2.10;;;;;;;;;;5123883;28;20189;-73
2022/07/31 14:19:54;;;;;;;3.35;2.20;;;;;;;;;;5124042;28;20068;-72
2022/07/31 14:22:19;;;;;;;3.10;1.95;;;;;;;;;;5124229;28;20065;-72
2022/07/31 14:24:44;;;;;;;3.60;2.00;;;;;;;;;;5098594;28;20219;-73
2022/07/31 14:27:10;;;;;;;3.25;2.10;;;;;;;;;;5124390;28;20320;-73
2022/07/31 14:29:35;;;;;;;3.05;2.00;;;;;;;;;;5123889;28;20030;-72
2022/07/31 14:32:00;;;;;;;3.38;2.15;;;;;;;;;;5123457;28;20087;-72
2022/07/31 14:34:26;;;;;;;3.78;1.90;;;;;;;;;;5123555;28;20031;-73
2022/07/31 14:36:51;;;;;;;4.50;1.90;;;;;;;;;;5121156;28;20016;-73
2022/07/31 14:39:17;;;;;;;2.50;1.92;;;;;;;;;;5123304;28;20345;-73
2022/07/31 14:41:42;;;;;;;4.82;2.00;;;;;;;;;;5124093;28;20216;-73
2022/07/31 14:44:08;;;;;;;3.72;2.17;;;;;;;;;;5123671;28;20086;-73
2022/07/31 14:46:33;;;;;;;2.50;2.00;;;;;;;;;;5123378;28;20015;-73